Atlanta, Illinois
Current Conditions -  °F | °C
As of 3:35 AM on Saturday 20 Dec 2014 (Local Time) from KAAA Reporting Station
Haze Haze  
Wind Chill: 31°   Ceiling: 4600
Heat Index: 31°   Visibility: 5mi
Dew Point: 28°   Wind: 0mph
Humidity: 90%   Direction: NA
Pressure: 30.29"   Gusts: NA
Location:  40.26°N, 89.23°W
Report Text: KAAA 200935Z AUTO 00000KT 5SM BR OVC046 00/M02 A3029 RMK AO2 T10051020
Loading
Personal Weather Stations






























Interactive Weather Map New forecast layout! Learn more

10-Day Weather Forecast

Advertisements
Track Severe Weather on mobile